createdAt,value
2022-09-11T00:02:09.138Z,68.95
2022-09-11T00:04:45.131Z,68.73
2022-09-11T00:07:45.150Z,68.84
2022-09-11T00:10:45.073Z,69.39
2022-09-11T00:13:16.483Z,69.14
2022-09-11T00:16:03.133Z,69.00
2022-09-11T00:18:39.216Z,69.43
2022-09-11T00:21:15.313Z,69.01
2022-09-11T00:23:53.838Z,68.74
2022-09-11T00:26:30.285Z,68.88
2022-09-11T00:29:06.346Z,68.89
2022-09-11T00:31:43.529Z,68.88
2022-09-11T00:34:18.106Z,69.02
2022-09-11T00:36:55.158Z,68.96
2022-09-11T00:39:31.296Z,69.16
2022-09-11T00:42:08.219Z,69.26
2022-09-11T00:44:45.473Z,69.06
2022-09-11T00:47:15.520Z,69.08
2022-09-11T00:49:55.056Z,69.59
2022-09-11T00:52:36.100Z,69.46
2022-09-11T00:55:14.769Z,69.53
2022-09-11T00:58:06.595Z,69.59
2022-09-11T01:00:44.954Z,69.11
2022-09-11T01:03:45.220Z,69.06
2022-09-11T01:06:14.007Z,68.99
2022-09-11T01:11:36.011Z,69.29
2022-09-11T01:14:40.006Z,69.20
2022-09-11T01:17:35.005Z,69.21
2022-09-11T01:20:36.646Z,69.34
2022-09-11T01:23:46.134Z,69.21
2022-09-11T01:26:53.192Z,69.34
2022-09-11T01:29:59.220Z,69.49
2022-09-11T01:32:42.195Z,69.67
2022-09-11T01:35:51.060Z,69.77
2022-09-11T01:38:54.604Z,69.68
2022-09-11T01:41:42.541Z,69.74
2022-09-11T01:44:41.924Z,69.83
2022-09-11T01:47:21.057Z,69.90
2022-09-11T01:50:10.295Z,70.14
2022-09-11T01:52:53.184Z,70.20
2022-09-11T01:55:29.257Z,70.25
2022-09-11T01:58:09.901Z,70.32
2022-09-11T02:00:53.788Z,70.42
2022-09-11T02:03:31.687Z,70.39
2022-09-11T02:06:16.162Z,70.50
2022-09-11T02:08:54.178Z,70.46
2022-09-11T02:11:54.833Z,70.88
2022-09-11T02:14:48.927Z,70.70
2022-09-11T02:17:52.391Z,70.98
2022-09-11T02:20:52.832Z,71.13
2022-09-11T02:23:29.387Z,71.27
2022-09-11T02:25:57.100Z,71.42
2022-09-11T02:30:38.261Z,71.99
2022-09-11T02:33:36.017Z,71.77
2022-09-11T02:36:50.669Z,72.03
2022-09-11T02:39:45.237Z,72.09
2022-09-11T02:42:44.586Z,72.19
2022-09-11T02:45:41.816Z,72.27
2022-09-11T02:48:49.873Z,72.54
2022-09-11T02:51:55.967Z,72.49
2022-09-11T02:54:56.007Z,72.64
2022-09-11T02:58:08.526Z,72.85
2022-09-11T03:00:46.736Z,72.50
2022-09-11T03:03:16.602Z,72.57
2022-09-11T03:07:55.093Z,72.98
2022-09-11T03:10:31.932Z,72.46
2022-09-11T03:13:07.736Z,72.65
2022-09-11T03:15:43.613Z,72.67
2022-09-11T03:18:15.614Z,72.68
2022-09-11T03:22:42.694Z,72.86
2022-09-11T03:25:20.516Z,72.96
2022-09-11T03:27:57.665Z,72.96
2022-09-11T03:30:37.709Z,72.85
2022-09-11T03:33:13.668Z,72.89
2022-09-11T03:35:43.284Z,73.11
2022-09-11T03:38:19.975Z,72.81
2022-09-11T03:40:57.976Z,73.00
2022-09-11T03:43:58.759Z,72.62
2022-09-11T03:49:19.316Z,72.75
2022-09-11T03:51:57.049Z,72.84
2022-09-11T03:54:58.212Z,72.83
2022-09-11T03:57:59.180Z,72.66
2022-09-11T04:00:59.621Z,72.59
2022-09-11T04:03:40.074Z,72.51
2022-09-11T04:06:16.878Z,72.48
2022-09-11T04:08:46.826Z,72.59
2022-09-11T04:13:35.721Z,72.78
2022-09-11T04:16:16.205Z,72.60
2022-09-11T04:18:54.294Z,72.71
2022-09-11T04:21:54.805Z,72.94
2022-09-11T04:24:22.617Z,72.35
2022-09-11T04:27:01.045Z,72.56
2022-09-11T04:29:39.861Z,72.54
2022-09-11T04:32:18.048Z,72.46
2022-09-11T04:34:54.759Z,72.37
2022-09-11T04:37:22.456Z,72.34
2022-09-11T04:40:00.885Z,72.39
2022-09-11T04:43:02.380Z,72.42
2022-09-11T04:45:41.778Z,72.38
2022-09-11T04:48:10.833Z,72.69
2022-09-11T04:50:48.289Z,72.53
2022-09-11T04:53:46.920Z,72.26
2022-09-11T04:56:29.747Z,72.29
2022-09-11T04:59:31.112Z,72.60
2022-09-11T05:02:03.629Z,72.58
2022-09-11T05:04:41.255Z,72.60
2022-09-11T05:07:08.852Z,72.64
2022-09-11T05:09:45.303Z,72.43
2022-09-11T05:12:13.102Z,72.52
2022-09-11T05:14:51.523Z,72.36
2022-09-11T05:17:28.386Z,72.32
2022-09-11T05:20:08.628Z,72.35
2022-09-11T05:22:47.330Z,72.32
2022-09-11T05:25:23.380Z,72.28
2022-09-11T05:28:00.329Z,72.17
2022-09-11T05:31:00.285Z,72.17
2022-09-11T05:34:00.686Z,72.03
2022-09-11T05:37:02.235Z,72.00
2022-09-11T05:40:04.674Z,71.93
2022-09-11T05:42:42.360Z,71.92
2022-09-11T05:45:19.373Z,71.97
2022-09-11T05:47:56.973Z,72.01
2022-09-11T05:50:34.596Z,71.85
2022-09-11T05:53:03.866Z,71.72
2022-09-11T05:55:35.621Z,71.84
2022-09-11T05:58:03.448Z,72.02
2022-09-11T06:00:31.432Z,71.70
2022-09-11T06:03:09.196Z,71.62
2022-09-11T06:05:47.411Z,71.59
2022-09-11T06:08:24.353Z,71.61
2022-09-11T06:11:02.850Z,71.80
2022-09-11T06:13:51.366Z,71.69
2022-09-11T06:16:32.073Z,71.79
2022-09-11T06:19:28.332Z,71.75
2022-09-11T06:22:05.612Z,71.79
2022-09-11T06:24:49.710Z,71.86
2022-09-11T06:27:26.350Z,71.80
2022-09-11T06:30:04.390Z,71.89
2022-09-11T06:32:48.587Z,71.70
2022-09-11T06:35:25.359Z,71.70
2022-09-11T06:38:02.950Z,71.82
2022-09-11T06:41:05.030Z,71.88
2022-09-11T06:44:07.292Z,71.80
2022-09-11T06:46:35.580Z,71.94
2022-09-11T06:49:28.301Z,72.07
2022-09-11T06:52:35.416Z,72.08
2022-09-11T06:55:31.361Z,72.32
2022-09-11T06:58:27.625Z,72.32
2022-09-11T07:01:05.394Z,72.29
2022-09-11T07:04:06.155Z,72.37
2022-09-11T07:07:06.765Z,72.12
2022-09-11T07:09:47.245Z,72.01
2022-09-11T07:12:24.358Z,72.05
2022-09-11T07:15:01.446Z,71.98
2022-09-11T07:20:28.473Z,71.82
2022-09-11T07:23:05.405Z,71.85
2022-09-11T07:26:06.095Z,72.07
2022-09-11T07:29:05.976Z,72.16
2022-09-11T07:32:07.098Z,72.25
2022-09-11T07:35:07.436Z,72.22
2022-09-11T07:38:08.057Z,72.14
2022-09-11T07:43:28.261Z,72.06
2022-09-11T07:46:05.547Z,72.05
2022-09-11T07:49:07.843Z,72.00
2022-09-11T07:52:08.982Z,71.86
2022-09-11T07:54:53.229Z,71.66
2022-09-11T07:57:24.500Z,71.56
2022-09-11T08:00:01.407Z,71.55
2022-09-11T08:03:04.227Z,71.59
2022-09-11T08:06:08.204Z,71.61
2022-09-11T08:09:09.101Z,71.60
2022-09-11T08:12:11.281Z,71.62
2022-09-11T08:17:31.576Z,71.75
2022-09-11T08:20:08.804Z,71.94
2022-09-11T08:23:09.862Z,71.93
2022-09-11T08:26:09.948Z,71.85
2022-09-11T08:29:10.914Z,71.67
2022-09-11T08:32:13.259Z,71.44
2022-09-11T08:34:53.072Z,71.25
2022-09-11T08:37:22.193Z,71.06
2022-09-11T08:42:13.035Z,70.84
2022-09-11T08:44:59.093Z,71.06
2022-09-11T08:48:11.319Z,70.95
2022-09-11T08:51:12.649Z,70.95
2022-09-11T08:54:19.638Z,70.98
2022-09-11T08:57:03.473Z,70.89
2022-09-11T08:59:59.465Z,70.82
2022-09-11T09:03:20.029Z,70.61
2022-09-11T09:06:14.311Z,70.62
2022-09-11T09:11:33.813Z,70.18
2022-09-11T09:14:20.906Z,70.31
2022-09-11T09:19:06.682Z,70.09
2022-09-11T09:22:16.684Z,70.56
2022-09-11T09:25:00.935Z,70.61
2022-09-11T09:28:00.504Z,70.28
2022-09-11T09:31:08.127Z,70.12
2022-09-11T09:33:56.706Z,69.77
2022-09-11T09:36:39.381Z,69.54
2022-09-11T09:39:14.255Z,69.42
2022-09-11T09:42:17.649Z,69.24
2022-09-11T09:45:23.571Z,69.25
2022-09-11T09:48:01.046Z,69.20
2022-09-11T09:50:36.201Z,69.26
2022-09-11T09:53:27.471Z,69.35
2022-09-11T09:56:04.950Z,69.55
2022-09-11T09:59:01.103Z,69.63
2022-09-11T10:02:01.884Z,69.70
2022-09-11T10:04:38.704Z,69.74
2022-09-11T10:07:20.769Z,69.42
2022-09-11T10:10:03.448Z,69.37
2022-09-11T10:15:39.624Z,69.75
2022-09-11T10:18:34.639Z,69.81
2022-09-11T10:21:11.687Z,69.82
2022-09-11T10:24:02.311Z,69.60
2022-09-11T10:26:46.569Z,69.53
2022-09-11T10:29:24.831Z,69.46
2022-09-11T10:32:03.767Z,69.40
2022-09-11T10:34:41.104Z,69.48
2022-09-11T10:37:26.842Z,69.73
2022-09-11T10:40:07.414Z,69.59
2022-09-11T10:42:45.315Z,69.42
2022-09-11T10:45:35.847Z,68.56
2022-09-11T10:48:16.102Z,67.84
2022-09-11T10:51:16.938Z,67.82
2022-09-11T10:54:20.165Z,67.58
2022-09-11T10:57:16.497Z,67.03
2022-09-11T11:00:06.200Z,66.78
2022-09-11T11:02:57.895Z,66.18
2022-09-11T11:05:45.722Z,66.34
2022-09-11T11:09:21.434Z,65.97
2022-09-11T11:12:18.823Z,65.61
2022-09-11T11:15:26.949Z,65.74
2022-09-11T11:18:24.474Z,65.99
2022-09-11T11:21:24.934Z,65.68
2022-09-11T11:24:23.589Z,65.32
2022-09-11T11:27:22.551Z,65.10
2022-09-11T11:30:17.260Z,64.11
2022-09-11T11:33:10.169Z,63.20
2022-09-11T11:36:38.298Z,63.37
2022-09-11T11:39:28.821Z,63.26
2022-09-11T11:42:13.061Z,62.77
2022-09-11T11:44:48.255Z,61.89
2022-09-11T11:47:42.440Z,63.26
2022-09-11T11:50:22.937Z,63.48
2022-09-11T11:53:08.336Z,61.69
2022-09-11T11:56:22.685Z,61.10
2022-09-11T11:58:54.011Z,63.23
2022-09-11T12:01:38.107Z,62.62
2022-09-11T12:04:33.234Z,62.35
2022-09-11T12:07:16.880Z,62.10
2022-09-11T12:10:22.184Z,62.70
2022-09-11T12:13:04.032Z,63.32
2022-09-11T12:16:15.501Z,61.92
2022-09-11T12:19:25.428Z,62.10
2022-09-11T12:22:10.831Z,61.84
2022-09-11T12:25:01.505Z,62.46
2022-09-11T12:27:39.617Z,63.06
2022-09-11T12:30:16.621Z,62.27
2022-09-11T12:33:35.249Z,61.02
2022-09-11T12:36:33.910Z,61.86
2022-09-11T12:39:26.549Z,62.10
2022-09-11T12:42:23.262Z,62.09
2022-09-11T12:44:51.078Z,61.71
2022-09-11T12:47:19.707Z,61.92
2022-09-11T12:49:54.349Z,62.59
2022-09-11T12:52:33.832Z,61.70
2022-09-11T12:55:40.305Z,60.29
2022-09-11T12:58:19.313Z,60.87
2022-09-11T13:01:23.537Z,61.56
2022-09-11T13:04:24.693Z,63.00
2022-09-11T13:07:26.463Z,61.76
2022-09-11T13:10:09.154Z,60.16
2022-09-11T13:15:44.775Z,62.06
2022-09-11T13:18:27.309Z,62.24
2022-09-11T13:21:10.030Z,60.64
2022-09-11T13:23:46.821Z,60.88
2022-09-11T13:26:25.803Z,61.11
2022-09-11T13:29:26.827Z,61.15
2022-09-11T13:32:13.897Z,60.93
2022-09-11T13:35:13.837Z,61.18
2022-09-11T13:37:51.745Z,62.05
2022-09-11T13:42:51.970Z,60.64
2022-09-11T13:45:28.765Z,60.84
2022-09-11T13:48:22.769Z,60.98
2022-09-11T13:51:29.622Z,60.65
2022-09-11T13:54:14.753Z,60.94
2022-09-11T13:56:54.472Z,60.05
2022-09-11T13:59:48.181Z,59.51
2022-09-11T14:02:41.234Z,59.68
2022-09-11T14:05:21.003Z,60.18
2022-09-11T14:08:24.791Z,59.99
2022-09-11T14:11:26.386Z,60.21
2022-09-11T14:14:26.659Z,59.01
2022-09-11T14:17:09.762Z,58.96
2022-09-11T14:19:47.266Z,59.27
2022-09-11T14:22:26.934Z,59.14
2022-09-11T14:25:27.803Z,58.69
2022-09-11T14:28:35.563Z,58.88
2022-09-11T14:31:14.402Z,59.14
2022-09-11T14:34:15.164Z,59.06
2022-09-11T14:37:11.565Z,59.21
2022-09-11T14:39:42.662Z,59.48
2022-09-11T14:42:23.147Z,59.28
2022-09-11T14:45:24.473Z,59.94
2022-09-11T14:48:25.973Z,60.05
2022-09-11T14:50:53.922Z,60.10
2022-09-11T14:53:31.687Z,60.18
2022-09-11T14:56:09.285Z,60.41
2022-09-11T14:58:46.394Z,60.54
2022-09-11T15:01:22.624Z,60.56
2022-09-11T15:04:23.110Z,60.49
2022-09-11T15:07:23.489Z,60.38
2022-09-11T15:10:15.340Z,59.39
2022-09-11T15:12:51.485Z,59.19
2022-09-11T15:15:29.580Z,58.98
2022-09-11T15:18:29.696Z,58.41
2022-09-11T15:21:30.045Z,57.82
2022-09-11T15:24:15.476Z,57.85
2022-09-11T15:26:52.887Z,57.61
2022-09-11T15:29:31.465Z,57.88
2022-09-11T15:32:10.686Z,57.71
2022-09-11T15:34:47.421Z,57.76
2022-09-11T15:37:24.345Z,57.80
2022-09-11T15:40:15.947Z,57.80
2022-09-11T15:42:43.671Z,57.81
2022-09-11T15:45:21.487Z,57.83
2022-09-11T15:48:10.629Z,57.43
2022-09-11T15:50:58.943Z,57.75
2022-09-11T15:53:49.492Z,56.89
2022-09-11T15:56:26.191Z,55.55
2022-09-11T15:59:26.274Z,55.29
2022-09-11T16:02:26.019Z,54.82
2022-09-11T16:05:26.336Z,53.61
2022-09-11T16:07:54.259Z,53.80
2022-09-11T16:12:16.982Z,54.05
2022-09-11T16:14:53.889Z,54.40
2022-09-11T16:17:32.500Z,54.55
2022-09-11T16:20:36.819Z,54.81
2022-09-11T16:23:12.821Z,54.83
2022-09-11T16:25:50.442Z,54.90
2022-09-11T16:28:26.816Z,55.04
2022-09-11T16:31:01.362Z,55.26
2022-09-11T16:33:51.839Z,55.39
2022-09-11T16:36:28.304Z,55.52
2022-09-11T16:39:28.776Z,55.78
2022-09-11T16:42:28.844Z,55.35
2022-09-11T16:45:28.636Z,55.41
2022-09-11T16:48:29.260Z,55.35
2022-09-11T16:51:29.737Z,55.68
2022-09-11T16:53:57.620Z,55.58
2022-09-11T16:58:20.553Z,55.77
2022-09-11T17:00:56.496Z,55.92
2022-09-11T17:03:38.228Z,56.12
2022-09-11T17:06:20.098Z,56.31
2022-09-11T17:08:51.829Z,56.70
2022-09-11T17:13:16.046Z,56.92
2022-09-11T17:15:52.751Z,57.15
2022-09-11T17:18:29.697Z,57.13
2022-09-11T17:21:30.516Z,57.18
2022-09-11T17:23:58.562Z,57.33
2022-09-11T17:28:28.098Z,57.68
2022-09-11T17:32:26.638Z,57.95
2022-09-11T17:34:59.421Z,58.06
2022-09-11T17:37:42.822Z,58.26
2022-09-11T17:40:19.222Z,58.55
2022-09-11T17:42:48.619Z,58.62
2022-09-11T17:46:56.733Z,59.07
2022-09-11T17:49:24.428Z,59.26
2022-09-11T17:51:52.369Z,59.19
2022-09-11T17:54:20.132Z,59.45
2022-09-11T17:56:57.502Z,59.69
2022-09-11T17:59:31.433Z,59.76
2022-09-11T18:02:31.831Z,61.11
2022-09-11T18:05:31.981Z,61.21
2022-09-11T18:08:33.226Z,61.06
2022-09-11T18:11:33.897Z,61.19
2022-09-11T18:14:38.811Z,61.26
2022-09-11T18:19:57.178Z,63.74
2022-09-11T18:22:35.856Z,62.20
2022-09-11T18:25:39.852Z,62.01
2022-09-11T18:28:19.975Z,59.24
2022-09-11T18:31:01.705Z,58.49
2022-09-11T18:33:38.161Z,59.12
2022-09-11T18:36:37.985Z,60.26
2022-09-11T18:39:05.834Z,60.31
2022-09-11T18:44:25.305Z,63.12
2022-09-11T18:46:54.530Z,62.95
2022-09-11T18:49:32.049Z,58.72
2022-09-11T18:52:20.611Z,58.10
2022-09-11T18:54:50.641Z,58.95
2022-09-11T18:59:29.353Z,59.83
2022-09-11T19:02:05.566Z,60.58
2022-09-11T19:04:42.458Z,60.96
2022-09-11T19:07:20.385Z,60.94
2022-09-11T19:09:49.389Z,61.33
2022-09-11T19:12:26.156Z,61.73
2022-09-11T19:15:04.700Z,62.51
2022-09-11T19:17:42.112Z,61.18
2022-09-11T19:20:19.945Z,59.63
2022-09-11T19:22:48.568Z,58.72
2022-09-11T19:27:07.465Z,60.00
2022-09-11T19:29:43.614Z,60.66
2022-09-11T19:32:23.732Z,61.17
2022-09-11T19:35:00.608Z,61.46
2022-09-11T19:37:29.485Z,61.79
2022-09-11T19:42:41.963Z,61.40
2022-09-11T19:45:18.320Z,61.01
2022-09-11T19:47:54.802Z,61.47
2022-09-11T19:50:35.789Z,61.88
2022-09-11T19:53:04.144Z,62.26
2022-09-11T19:57:27.340Z,61.91
2022-09-11T20:00:04.101Z,60.55
2022-09-11T20:02:41.406Z,59.32
2022-09-11T20:05:42.139Z,58.76
2022-09-11T20:08:43.387Z,60.01
2022-09-11T20:11:42.870Z,60.79
2022-09-11T20:14:43.017Z,61.65
2022-09-11T20:17:44.811Z,62.24
2022-09-11T20:23:04.179Z,59.90
2022-09-11T20:25:40.245Z,59.39
2022-09-11T20:28:39.895Z,59.95
2022-09-11T20:31:48.735Z,61.25
2022-09-11T20:34:28.095Z,61.88
2022-09-11T20:37:39.101Z,63.28
2022-09-11T20:44:04.427Z,61.80
2022-09-11T20:46:43.770Z,62.83
2022-09-11T20:49:43.770Z,62.19
2022-09-11T20:52:12.647Z,61.27
2022-09-11T20:55:03.008Z,60.61
2022-09-11T20:57:38.926Z,59.22
2022-09-11T21:00:29.963Z,59.87
2022-09-11T21:03:06.026Z,61.42
2022-09-11T21:05:41.911Z,62.74
2022-09-11T21:08:42.272Z,62.26
2022-09-11T21:11:42.681Z,61.07
2022-09-11T21:14:43.200Z,60.01
2022-09-11T21:17:42.746Z,59.76
2022-09-11T21:20:42.568Z,59.65
2022-09-11T21:23:42.919Z,61.19
2022-09-11T21:26:13.407Z,62.51
2022-09-11T21:28:50.067Z,62.18
2022-09-11T21:31:26.584Z,61.41
2022-09-11T21:34:04.431Z,61.28
2022-09-11T21:36:41.124Z,60.48
2022-09-11T21:39:09.278Z,60.49
2022-09-11T21:41:46.716Z,60.18
2022-09-11T21:44:46.627Z,60.35
2022-09-11T21:47:14.453Z,59.87
2022-09-11T21:52:27.088Z,60.63
2022-09-11T21:55:03.082Z,61.88
2022-09-11T21:57:40.037Z,63.51
2022-09-11T22:00:15.988Z,63.28
2022-09-11T22:02:57.840Z,62.53
2022-09-11T22:07:35.868Z,62.21
2022-09-11T22:10:12.135Z,61.79
2022-09-11T22:12:52.190Z,61.82
2022-09-11T22:15:28.810Z,61.61
2022-09-11T22:17:56.478Z,61.66
2022-09-11T22:22:40.288Z,61.65
2022-09-11T22:25:16.904Z,62.87
2022-09-11T22:28:07.493Z,63.21
2022-09-11T22:30:44.043Z,63.05
2022-09-11T22:33:44.590Z,62.91
2022-09-11T22:36:44.454Z,62.64
2022-09-11T22:39:44.652Z,62.68
2022-09-11T22:42:44.774Z,62.41
2022-09-11T22:45:12.500Z,62.29
2022-09-11T22:47:49.944Z,62.46
2022-09-11T22:50:50.969Z,62.50
2022-09-11T22:53:30.258Z,62.75
2022-09-11T22:55:58.205Z,62.96
2022-09-11T22:58:35.231Z,63.09
2022-09-11T23:01:13.649Z,62.96
2022-09-11T23:03:53.042Z,62.91
2022-09-11T23:06:48.470Z,63.08
2022-09-11T23:09:24.782Z,63.16
2022-09-11T23:12:01.146Z,63.47
2022-09-11T23:14:37.864Z,63.82
2022-09-11T23:17:11.652Z,63.79
2022-09-11T23:22:45.530Z,64.27
2022-09-11T23:25:31.636Z,64.09
2022-09-11T23:28:08.005Z,64.28
2022-09-11T23:30:44.283Z,64.69
2022-09-11T23:33:12.015Z,64.85
2022-09-11T23:35:41.112Z,64.85
2022-09-11T23:38:08.938Z,64.84
2022-09-11T23:40:36.624Z,64.74
2022-09-11T23:43:04.471Z,64.70
2022-09-11T23:45:32.270Z,64.75
2022-09-11T23:48:00.693Z,64.84
2022-09-11T23:50:28.371Z,64.99
2022-09-11T23:53:05.111Z,64.71
2022-09-11T23:55:42.447Z,64.82
2022-09-11T23:58:19.104Z,64.73
